createdAt,value
2023-01-23T00:00:21.227Z,100468.72
2023-01-23T00:02:50.143Z,100470.38
2023-01-23T00:05:19.392Z,100472.06
2023-01-23T00:07:48.921Z,100477.34
2023-01-23T00:10:18.841Z,100472.72
2023-01-23T00:12:49.324Z,100481.25
2023-01-23T00:15:18.595Z,100476.41
2023-01-23T00:17:48.497Z,100484.47
2023-01-23T00:20:17.439Z,100488.66
2023-01-23T00:22:46.453Z,100488.41
2023-01-23T00:25:15.213Z,100488.00
2023-01-23T00:28:24.059Z,100492.31
2023-01-23T00:30:52.900Z,100483.13
2023-01-23T00:33:21.625Z,100489.22
2023-01-23T00:35:50.316Z,100497.69
2023-01-23T00:38:19.069Z,100495.03
2023-01-23T00:40:48.092Z,100494.38
2023-01-23T00:43:16.858Z,100488.56
2023-01-23T00:45:47.002Z,100498.56
2023-01-23T00:48:15.825Z,100492.84
2023-01-23T00:50:45.408Z,100478.66
2023-01-23T00:53:14.470Z,100497.31
2023-01-23T00:55:43.972Z,100498.16
2023-01-23T00:58:59.056Z,100496.59
2023-01-23T01:01:31.614Z,100500.41
2023-01-23T01:04:02.384Z,100500.81
2023-01-23T01:06:31.362Z,100503.19
2023-01-23T01:09:01.189Z,100505.00
2023-01-23T01:11:30.037Z,100512.47
2023-01-23T01:14:01.516Z,100524.03
2023-01-23T01:16:32.367Z,100521.38
2023-01-23T01:19:01.846Z,100517.34
2023-01-23T01:21:31.228Z,100526.25
2023-01-23T01:23:59.954Z,100526.66
2023-01-23T01:26:29.573Z,100523.44
2023-01-23T01:28:58.792Z,100528.75
2023-01-23T01:31:28.224Z,100534.34
2023-01-23T01:33:58.470Z,100545.00
2023-01-23T01:36:27.584Z,100537.75
2023-01-23T01:38:56.392Z,100540.41
2023-01-23T01:41:27.099Z,100542.06
2023-01-23T01:44:00.545Z,100541.22
2023-01-23T01:46:32.440Z,100556.16
2023-01-23T01:49:10.516Z,100554.91
2023-01-23T01:51:47.723Z,100551.28
2023-01-23T01:54:25.393Z,100561.72
2023-01-23T01:57:02.185Z,100559.06
2023-01-23T01:59:41.769Z,100556.72
2023-01-23T02:02:15.858Z,100573.56
2023-01-23T02:04:52.733Z,100563.41
2023-01-23T02:07:29.342Z,100569.94
2023-01-23T02:09:58.986Z,100562.00
2023-01-23T02:12:28.873Z,100565.50
2023-01-23T02:14:57.943Z,100573.13
2023-01-23T02:17:27.037Z,100575.50
2023-01-23T02:20:09.049Z,100575.19
2023-01-23T02:22:50.278Z,100574.38
2023-01-23T02:25:30.376Z,100575.19
2023-01-23T02:28:01.569Z,100568.91
2023-01-23T02:30:32.145Z,100578.50
2023-01-23T02:33:11.103Z,100581.47
2023-01-23T02:35:40.876Z,100580.63
2023-01-23T03:44:59.744Z,100572.66
2023-01-23T03:47:32.486Z,100582.56
2023-01-23T03:50:01.711Z,100583.53
2023-01-23T03:52:38.020Z,100592.16
2023-01-23T03:55:08.539Z,100600.09
2023-01-23T03:57:38.437Z,100597.44
2023-01-23T04:00:27.271Z,100598.00
2023-01-23T04:03:29.850Z,100597.19
2023-01-23T04:06:00.288Z,100606.66
2023-01-23T04:08:29.768Z,100609.16
2023-01-23T04:11:05.477Z,100604.69
2023-01-23T04:13:34.377Z,100604.69
2023-01-23T04:16:06.779Z,100605.69
2023-01-23T04:18:36.091Z,100611.38
2023-01-23T04:21:10.525Z,100618.19
2023-01-23T04:23:50.373Z,100614.44
2023-01-23T04:26:21.354Z,100615.69
2023-01-23T04:28:52.776Z,100616.81
2023-01-23T04:31:23.266Z,100620.00
2023-01-23T04:33:52.388Z,100624.47
2023-01-23T04:36:23.535Z,100623.63
2023-01-23T04:39:17.033Z,100623.78
2023-01-23T04:41:50.863Z,100632.28
2023-01-23T04:44:39.834Z,100635.34
2023-01-23T04:47:28.887Z,100638.41
2023-01-23T04:55:01.716Z,100642.00
2023-01-23T04:57:29.384Z,100635.75
2023-01-23T05:00:19.295Z,100633.09
2023-01-23T05:02:49.267Z,100634.91
2023-01-23T05:05:21.308Z,100640.63
2023-01-23T05:07:53.768Z,100640.31
2023-01-23T05:10:24.053Z,100645.50
2023-01-23T05:12:53.783Z,100637.00
2023-01-23T05:15:24.032Z,100635.03
2023-01-23T05:17:53.381Z,100637.69
2023-01-23T05:20:42.585Z,100647.84
2023-01-23T05:24:10.682Z,100641.41
2023-01-23T05:26:41.367Z,100648.41
2023-01-23T05:30:28.696Z,100650.34
2023-01-23T05:33:13.184Z,100650.34
2023-01-23T05:35:52.732Z,100652.31
2023-01-23T05:38:21.708Z,100658.00
2023-01-23T05:40:50.921Z,100650.91
2023-01-23T05:44:22.210Z,100653.84
2023-01-23T05:47:53.165Z,100657.75
2023-01-23T05:50:24.785Z,100649.25
2023-01-23T05:52:56.763Z,100653.13
2023-01-23T05:55:26.887Z,100658.72
2023-01-23T05:57:57.894Z,100670.81
2023-01-23T06:00:28.509Z,100675.13
2023-01-23T06:03:17.520Z,100679.00
2023-01-23T06:06:03.029Z,100683.91
2023-01-23T06:08:31.843Z,100673.19
2023-01-23T06:11:01.338Z,100675.84
2023-01-23T06:13:30.886Z,100672.09
2023-01-23T06:16:01.902Z,100681.53
2023-01-23T06:19:01.482Z,100682.78
2023-01-23T06:21:32.841Z,100684.59
2023-01-23T06:24:02.081Z,100686.25
2023-01-23T06:26:31.300Z,100685.16
2023-01-23T06:29:00.227Z,100686.69
2023-01-23T06:31:32.611Z,100689.59
2023-01-23T06:34:03.268Z,100693.22
2023-01-23T06:36:38.028Z,100696.56
2023-01-23T06:39:06.846Z,100705.19
2023-01-23T06:41:41.507Z,100703.53
2023-01-23T06:44:12.341Z,100701.03
2023-01-23T06:46:43.258Z,100707.16
2023-01-23T06:49:12.199Z,100713.13
2023-01-23T06:51:40.927Z,100716.47
2023-01-23T06:54:12.235Z,100715.47
2023-01-23T06:56:41.685Z,100714.53
2023-01-23T06:59:12.208Z,100718.84
2023-01-23T07:01:43.876Z,100717.19
2023-01-23T07:04:25.967Z,100721.34
2023-01-23T07:06:54.727Z,100727.47
2023-01-23T07:09:23.479Z,100729.97
2023-01-23T07:12:01.856Z,100731.91
2023-01-23T07:14:33.221Z,100733.59
2023-01-23T07:17:03.358Z,100733.59
2023-01-23T07:19:33.043Z,100748.34
2023-01-23T07:22:02.658Z,100757.97
2023-01-23T07:24:32.547Z,100770.22
2023-01-23T07:27:01.368Z,100772.16
2023-01-23T07:29:30.012Z,100777.56
2023-01-23T07:32:02.187Z,100779.28
2023-01-23T07:34:30.873Z,100786.22
2023-01-23T07:36:59.828Z,100788.03
2023-01-23T07:39:28.516Z,100789.28
2023-01-23T07:41:57.151Z,100796.94
2023-01-23T07:44:30.177Z,100797.63
2023-01-23T07:46:58.947Z,100795.69
2023-01-23T07:49:29.079Z,100800.00
2023-01-23T07:51:57.760Z,100802.53
2023-01-23T07:54:26.501Z,100801.25
2023-01-23T07:56:55.201Z,100801.53
2023-01-23T07:59:23.992Z,100803.47
2023-01-23T08:01:52.755Z,100797.78
2023-01-23T08:04:21.512Z,100800.41
2023-01-23T08:06:51.672Z,100806.81
2023-01-23T08:09:20.337Z,100803.75
2023-01-23T08:11:49.049Z,100803.34
2023-01-23T08:14:17.743Z,100810.72
2023-01-23T08:16:49.464Z,100805.41
2023-01-23T08:19:18.745Z,100810.44
2023-01-23T08:21:47.903Z,100804.59
2023-01-23T08:24:18.142Z,100809.34
2023-01-23T08:26:47.364Z,100806.28
2023-01-23T08:29:16.141Z,100802.34
2023-01-23T08:31:44.881Z,100811.84
2023-01-23T08:34:13.695Z,100814.34
2023-01-23T08:36:43.217Z,100805.31
2023-01-23T08:39:11.899Z,100813.09
2023-01-23T08:41:41.965Z,100814.19
2023-01-23T08:44:10.695Z,100810.59
2023-01-23T08:46:39.544Z,100814.06
2023-01-23T08:49:09.335Z,100822.44
2023-01-23T08:51:39.846Z,100828.56
2023-01-23T08:54:08.547Z,100828.25
2023-01-23T08:56:37.195Z,100825.75
2023-01-23T08:59:07.297Z,100826.06
2023-01-23T09:01:36.075Z,100830.94
2023-01-23T09:04:04.772Z,100826.06
2023-01-23T09:06:33.397Z,100824.66
2023-01-23T09:09:02.045Z,100828.00
2023-01-23T09:11:30.707Z,100822.84
2023-01-23T09:14:00.325Z,100824.53
2023-01-23T09:16:30.504Z,100828.97
2023-01-23T09:18:59.211Z,100836.34
2023-01-23T09:21:27.912Z,100837.75
2023-01-23T09:23:58.062Z,100840.81
2023-01-23T09:26:26.715Z,100841.63
2023-01-23T09:28:56.863Z,100852.50
2023-01-23T09:31:25.702Z,100854.31
2023-01-23T09:33:55.759Z,100851.09
2023-01-23T09:36:41.358Z,100843.72
2023-01-23T09:39:10.665Z,100845.00
2023-01-23T09:41:42.325Z,100845.69
2023-01-23T09:44:20.065Z,100845.25
2023-01-23T09:46:57.871Z,100847.34
2023-01-23T09:49:37.231Z,100849.72
2023-01-23T09:52:15.272Z,100840.13
2023-01-23T09:54:47.265Z,100830.22
2023-01-23T09:57:20.595Z,100822.53
2023-01-23T10:00:00.351Z,100829.09
2023-01-23T10:02:30.049Z,100830.22
2023-01-23T10:05:03.033Z,100825.19
2023-01-23T10:08:00.443Z,100820.44
2023-01-23T10:10:59.627Z,100827.81
2023-01-23T10:13:55.865Z,100816.66
2023-01-23T10:16:58.020Z,100824.34
2023-01-23T10:19:49.614Z,100816.41
2023-01-23T10:22:36.236Z,100817.91
2023-01-23T10:25:17.515Z,100822.69
2023-01-23T10:27:49.893Z,100823.25
2023-01-23T10:30:27.850Z,100825.44
2023-01-23T10:33:05.390Z,100826.84
2023-01-23T10:35:47.283Z,100815.16
2023-01-23T10:38:28.996Z,100820.16
2023-01-23T10:41:21.171Z,100820.84
2023-01-23T10:43:54.428Z,100818.91
2023-01-23T10:46:31.759Z,100830.47
2023-01-23T10:49:03.019Z,100834.78
2023-01-23T10:51:36.095Z,100829.75
2023-01-23T10:54:17.008Z,100821.53
2023-01-23T10:57:00.530Z,100824.03
2023-01-23T10:59:35.790Z,100821.25
2023-01-23T11:02:27.827Z,100818.47
2023-01-23T11:04:57.332Z,100815.69
2023-01-23T11:07:28.739Z,100813.59
2023-01-23T11:10:02.313Z,100817.75
2023-01-23T11:12:33.692Z,100810.66
2023-01-23T11:15:25.946Z,100808.56
2023-01-23T11:17:57.268Z,100810.91
2023-01-23T11:20:31.970Z,100809.50
2023-01-23T11:23:14.317Z,100808.13
2023-01-23T11:25:46.181Z,100806.03
2023-01-23T11:28:30.768Z,100805.50
2023-01-23T11:31:15.737Z,100802.94
2023-01-23T11:33:55.129Z,100805.03
2023-01-23T11:36:46.738Z,100808.06
2023-01-23T11:39:38.856Z,100802.78
2023-01-23T11:42:12.508Z,100796.66
2023-01-23T11:44:46.458Z,100798.34
2023-01-23T11:48:07.839Z,100803.34
2023-01-23T11:50:54.930Z,100795.16
2023-01-23T11:53:43.015Z,100800.97
2023-01-23T11:56:43.982Z,100797.25
2023-01-23T11:59:57.421Z,100801.72
2023-01-23T12:03:30.217Z,100802.13
2023-01-23T12:06:23.506Z,100793.41
2023-01-23T12:09:03.536Z,100788.13
2023-01-23T12:11:45.719Z,100793.66
2023-01-23T12:14:27.376Z,100794.50
2023-01-23T12:17:13.136Z,100798.91
2023-01-23T12:20:04.776Z,100793.09
2023-01-23T12:22:51.765Z,100788.88
2023-01-23T12:25:32.644Z,100788.31
2023-01-23T12:28:18.066Z,100791.38
2023-01-23T12:31:12.162Z,100788.19
2023-01-23T12:34:11.887Z,100784.09
2023-01-23T12:37:29.892Z,100783.59
2023-01-23T12:40:12.119Z,100787.78
2023-01-23T12:42:51.935Z,100786.38
2023-01-23T12:45:24.739Z,100778.81
2023-01-23T12:48:08.490Z,100790.63
2023-01-23T12:50:48.038Z,100793.28
2023-01-23T12:53:20.224Z,100789.81
2023-01-23T12:56:00.368Z,100794.13
2023-01-23T12:58:36.693Z,100794.13
2023-01-23T13:01:24.134Z,100792.03
2023-01-23T13:04:07.916Z,100795.44
2023-01-23T13:07:03.870Z,100799.63
2023-01-23T13:09:51.405Z,100800.56
2023-01-23T13:12:24.885Z,100802.28
2023-01-23T13:15:12.983Z,100798.81
2023-01-23T13:17:50.786Z,100799.78
2023-01-23T13:20:49.347Z,100803.00
2023-01-23T13:23:25.375Z,100801.19
2023-01-23T13:26:32.632Z,100799.94
2023-01-23T13:29:04.179Z,100798.97
2023-01-23T13:31:41.393Z,100806.22
2023-01-23T13:34:41.669Z,100809.44
2023-01-23T13:37:52.272Z,100805.97
2023-01-23T13:40:24.435Z,100799.41
2023-01-23T13:42:53.423Z,100802.63
2023-01-23T13:45:33.102Z,100801.22
2023-01-23T14:22:43.379Z,100808.91
2023-01-23T14:25:19.808Z,100808.78
2023-01-23T14:27:56.010Z,100803.47
2023-01-23T14:30:34.282Z,100803.19
2023-01-23T14:33:13.321Z,100806.53
2023-01-23T14:35:44.677Z,100815.16
2023-01-23T14:38:26.021Z,100812.50
2023-01-23T14:40:59.135Z,100815.44
2023-01-23T14:44:21.923Z,100811.97
2023-01-23T14:47:04.314Z,100811.41
2023-01-23T14:49:41.956Z,100813.91
2023-01-23T14:53:30.948Z,100803.31
2023-01-23T14:56:05.757Z,100811.00
2023-01-23T14:58:35.825Z,100811.56
2023-01-23T15:01:05.524Z,100803.72
2023-01-23T15:03:40.343Z,100807.50
2023-01-23T15:06:21.705Z,100806.53
2023-01-23T15:08:52.473Z,100808.50
2023-01-23T15:11:33.952Z,100812.13
2023-01-23T15:14:05.095Z,100805.97
2023-01-23T15:16:38.245Z,100809.06
2023-01-23T15:19:25.512Z,100816.28
2023-01-23T15:22:09.642Z,100811.28
2023-01-23T15:24:40.498Z,100810.88
2023-01-23T15:27:28.103Z,100815.03
2023-01-23T15:30:40.941Z,100817.41
2023-01-23T15:33:41.517Z,100813.78
2023-01-23T15:36:30.625Z,100820.50
2023-01-23T15:39:04.941Z,100816.44
2023-01-23T15:41:45.473Z,100822.44
2023-01-23T15:44:28.678Z,100821.31
2023-01-23T15:47:01.198Z,100826.47
2023-01-23T15:49:31.122Z,100831.06
2023-01-23T15:52:02.695Z,100837.19
2023-01-23T15:54:38.389Z,100840.13
2023-01-23T15:57:09.130Z,100841.94
2023-01-23T15:59:39.667Z,100838.31
2023-01-23T16:02:29.610Z,100838.28
2023-01-23T16:05:05.443Z,100848.03
2023-01-23T16:07:41.217Z,100844.16
2023-01-23T16:10:21.861Z,100842.06
2023-01-23T16:13:18.629Z,100843.72
2023-01-23T16:15:48.666Z,100851.66
2023-01-23T16:18:18.899Z,100848.88
2023-01-23T16:20:48.908Z,100849.44
2023-01-23T16:23:22.213Z,100858.38
2023-01-23T16:25:53.551Z,100857.25
2023-01-23T16:28:26.937Z,100852.63
2023-01-23T16:31:01.758Z,100853.63
2023-01-23T16:33:30.799Z,100858.91
2023-01-23T16:36:04.963Z,100861.13
2023-01-23T16:38:35.531Z,100861.56
2023-01-23T16:41:06.814Z,100858.63
2023-01-23T16:43:35.886Z,100863.91
2023-01-23T16:46:05.959Z,100872.84
2023-01-23T16:48:36.083Z,100871.16
2023-01-23T16:51:12.776Z,100867.81
2023-01-23T16:53:50.793Z,100868.78
2023-01-23T16:56:29.859Z,100871.41
2023-01-23T16:59:00.193Z,100871.31
2023-01-23T17:01:31.012Z,100872.84
2023-01-23T17:04:04.192Z,100878.41
2023-01-23T17:06:33.908Z,100880.88
2023-01-23T17:09:04.258Z,100883.13
2023-01-23T17:11:43.246Z,100882.16
2023-01-23T17:14:18.979Z,100883.28
2023-01-23T17:16:53.034Z,100885.91
2023-01-23T17:19:31.813Z,100895.94
2023-01-23T17:22:04.889Z,100897.34
2023-01-23T17:24:33.853Z,100897.75
2023-01-23T17:27:04.109Z,100894.97
2023-01-23T17:29:33.052Z,100895.66
2023-01-23T17:32:01.974Z,100906.53
2023-01-23T17:34:48.925Z,100907.38
2023-01-23T17:37:22.848Z,100901.78
2023-01-23T17:39:51.905Z,100904.00
2023-01-23T17:42:22.603Z,100901.25
2023-01-23T17:44:51.704Z,100897.88
2023-01-23T17:47:20.913Z,100895.66
2023-01-23T17:49:54.845Z,100898.84
2023-01-23T17:52:25.021Z,100904.56
2023-01-23T17:54:54.603Z,100902.63
2023-01-23T17:57:24.782Z,100903.16
2023-01-23T17:59:55.663Z,100903.16
2023-01-23T18:02:29.769Z,100902.88
2023-01-23T18:04:59.965Z,100899.00
2023-01-23T18:07:28.852Z,100903.16
2023-01-23T18:09:57.873Z,100904.72
2023-01-23T18:12:41.232Z,100904.28
2023-01-23T18:15:18.211Z,100908.47
2023-01-23T18:18:22.574Z,100902.63
2023-01-23T18:20:54.730Z,100905.38
2023-01-23T18:23:25.564Z,100907.63
2023-01-23T18:26:11.155Z,100903.16
2023-01-23T18:28:53.417Z,100905.41
2023-01-23T18:31:40.076Z,100914.03
2023-01-23T18:34:30.661Z,100910.41
2023-01-23T18:37:15.498Z,100903.06
2023-01-23T18:40:12.343Z,100906.53
2023-01-23T18:42:56.139Z,100908.06
2023-01-23T18:45:28.024Z,100907.09
2023-01-23T18:47:58.064Z,100906.34
2023-01-23T18:50:29.973Z,100902.78
2023-01-23T18:53:17.709Z,100907.09
2023-01-23T18:56:14.400Z,100901.34
2023-01-23T18:59:11.128Z,100904.56
2023-01-23T19:02:23.407Z,100900.97
2023-01-23T19:05:32.193Z,100902.34
2023-01-23T19:08:37.917Z,100905.13
2023-01-23T19:11:37.670Z,100907.38
2023-01-23T19:14:22.355Z,100903.88
2023-01-23T19:17:16.614Z,100909.88
2023-01-23T19:20:00.485Z,100914.03
2023-01-23T19:22:49.374Z,100910.84
2023-01-23T19:25:20.524Z,100910.84
2023-01-23T19:28:16.569Z,100905.97
2023-01-23T19:30:51.583Z,100913.63
2023-01-23T19:33:35.146Z,100919.03
2023-01-23T19:36:11.301Z,100913.34
2023-01-23T19:38:40.238Z,100914.03
2023-01-23T19:41:25.533Z,100905.81
2023-01-23T19:43:57.203Z,100918.78
2023-01-23T19:46:31.035Z,100921.56
2023-01-23T19:49:04.356Z,100915.44
2023-01-23T19:51:36.795Z,100925.16
2023-01-23T19:54:09.692Z,100919.03
2023-01-23T19:56:46.433Z,100931.31
2023-01-23T19:59:15.329Z,100928.25
2023-01-23T20:01:48.605Z,100929.63
2023-01-23T20:04:24.966Z,100933.25
2023-01-23T20:06:54.870Z,100933.00
2023-01-23T20:09:24.006Z,100933.00
2023-01-23T20:11:53.074Z,100936.31
2023-01-23T20:14:23.618Z,100932.56
2023-01-23T20:16:52.914Z,100939.81
2023-01-23T20:19:23.636Z,100940.94
2023-01-23T20:21:52.372Z,100933.00
2023-01-23T20:24:21.353Z,100930.31
2023-01-23T20:26:50.138Z,100923.50
2023-01-23T20:29:18.889Z,100937.16
2023-01-23T20:31:47.813Z,100934.78
2023-01-23T20:34:16.664Z,100928.06
2023-01-23T20:36:46.986Z,100935.75
2023-01-23T20:39:16.367Z,100923.75
2023-01-23T20:41:48.434Z,100928.78
2023-01-23T20:44:17.458Z,100927.50
2023-01-23T20:46:46.210Z,100927.63
2023-01-23T20:49:15.719Z,100930.56
2023-01-23T20:51:46.232Z,100924.97
2023-01-23T20:54:15.110Z,100919.88
2023-01-23T20:56:45.889Z,100927.81
2023-01-23T20:59:19.430Z,100922.97
2023-01-23T21:02:05.758Z,100919.88
2023-01-23T21:04:36.911Z,100921.09
2023-01-23T21:07:07.121Z,100925.16
2023-01-23T21:09:35.830Z,100926.00
2023-01-23T21:12:04.990Z,100922.97
2023-01-23T21:14:33.676Z,100926.44
2023-01-23T21:17:02.600Z,100928.94
2023-01-23T21:19:31.368Z,100932.16
2023-01-23T21:22:00.186Z,100923.66
2023-01-23T21:24:34.332Z,100924.34
2023-01-23T21:27:03.591Z,100926.03
2023-01-23T21:29:33.062Z,100933.81
2023-01-23T21:32:02.148Z,100933.09
2023-01-23T21:34:32.022Z,100931.31
2023-01-23T21:37:00.803Z,100926.03
2023-01-23T21:39:31.083Z,100929.78
2023-01-23T21:41:59.785Z,100935.03
2023-01-23T21:44:28.570Z,100929.72
2023-01-23T21:46:57.269Z,100925.84
2023-01-23T21:49:26.084Z,100925.41
2023-01-23T21:51:54.979Z,100930.59
2023-01-23T21:54:23.831Z,100937.41
2023-01-23T21:56:53.946Z,100931.97
2023-01-23T21:59:22.657Z,100937.41
2023-01-23T22:01:50.478Z,100931.44
2023-01-23T22:04:22.497Z,100937.16
2023-01-23T22:06:55.627Z,100931.59
2023-01-23T22:09:26.997Z,100934.91
2023-01-23T22:11:57.383Z,100936.63
2023-01-23T22:14:26.090Z,100931.31
2023-01-23T22:16:54.859Z,100940.09
2023-01-23T22:19:25.835Z,100935.47
2023-01-23T22:21:55.907Z,100935.91
2023-01-23T22:24:25.053Z,100935.63
2023-01-23T22:26:53.810Z,100944.41
2023-01-23T22:29:24.152Z,100947.19
2023-01-23T22:31:53.222Z,100939.94
2023-01-23T22:34:22.151Z,100942.84
2023-01-23T22:36:50.932Z,100933.00
2023-01-23T22:39:20.151Z,100939.91
2023-01-23T22:41:50.251Z,100945.50
2023-01-23T22:44:19.313Z,100948.88
2023-01-23T22:46:52.126Z,100947.19
2023-01-23T22:49:20.861Z,100947.00
2023-01-23T22:51:51.558Z,100940.22
2023-01-23T22:54:20.589Z,100941.75
2023-01-23T22:56:49.268Z,100945.78
2023-01-23T22:59:18.061Z,100945.78
2023-01-23T23:01:48.227Z,100941.72
2023-01-23T23:04:17.013Z,100939.38
2023-01-23T23:06:45.752Z,100931.28
2023-01-23T23:09:14.537Z,100936.44
2023-01-23T23:11:44.140Z,100931.16
2023-01-23T23:14:12.841Z,100935.19
2023-01-23T23:16:42.101Z,100935.19
2023-01-23T23:19:12.411Z,100931.97
2023-01-23T23:21:41.554Z,100931.25
2023-01-23T23:24:14.214Z,100919.00
2023-01-23T23:26:43.102Z,100926.09
2023-01-23T23:29:11.838Z,100924.03
2023-01-23T23:31:40.708Z,100915.13
2023-01-23T23:34:09.847Z,100918.75
2023-01-23T23:36:39.940Z,100927.38
2023-01-23T23:39:08.711Z,100918.22
2023-01-23T23:41:37.595Z,100926.13
2023-01-23T23:44:06.631Z,100925.72
2023-01-23T23:46:35.306Z,100930.16
2023-01-23T23:49:04.077Z,100921.28
2023-01-23T23:51:32.852Z,100921.69
2023-01-23T23:54:03.074Z,100932.69
2023-01-23T23:56:32.389Z,100932.56
2023-01-23T23:59:01.121Z,100929.91
